Portada
METAR-TAF:

METAR-TAF

Aeroports :

Ambato, Equador

latitud: 01-12-43S, longitud: 078-34-28W, altitud: 2591 m

Observació

L'informe es va fer fa 2 hores i 53 minuts, a les 21:00 UTC
Vent 10 kt del Sud/Sud-Est
Temperatura 22°C
Humitat 53%
Pressió 1025 hPa
Visibilitat 10 km o més
Núvols disperses a una alçada de 2000 ft

METAR: SEAM 292100Z 16010KT 9999 SCT020 22/12 Q1025

Hora: 18:53 (23:53 UTC)


TAF: manca

Observacions i pronòstics meteorològics de més de 4000 aeroports (METAR i TAF).

Les estacions disponibles són els punts grocs i vermells al mapa.

Posi el ratolí al punt desitjat per veure el nom de l'estació.

Feu clic per veure les observacions i els pronòstics meteorològics.

Per canviar el mapa: feu clic els botons verds amb una creu de color negre per apropar; al botó verd amb un guió per allunyar la imatge; o en les fletxes verdes per a mapes adjacents.


METAR-TAF: